Time;durP1;ratioP1;P1;durP2;ratioP2;P2;SDS_P1;SDS_P2;PMS_P1;PMS_P2;Temp;Humidity;BMP_temperature;BMP_pressure;BME280_temperature;BME280_humidity;BME280_pressure;Samples;Min_cycle;Max_cycle;Signal;HPM_P1;HPM_P2
2023/07/28 00:01:14;;;;;;;2.40;2.00;;;20.70;59.70;;;;;;5036104;28;20599;-86
2023/07/28 00:03:40;;;;;;;2.50;2.13;;;20.70;59.80;;;;;;5036868;28;20250;-87
2023/07/28 00:06:06;;;;;;;1.90;1.80;;;20.70;59.80;;;;;;5053224;28;20162;-87
2023/07/28 00:08:31;;;;;;;2.47;2.10;;;20.70;59.80;;;;;;5054135;28;20177;-85
2023/07/28 00:10:57;;;;;;;2.45;1.90;;;20.70;59.80;;;;;;5052970;28;20193;-87
2023/07/28 00:13:23;;;;;;;2.80;2.10;;;20.70;59.80;;;;;;5053432;28;20158;-85
2023/07/28 00:15:49;;;;;;;2.50;2.30;;;20.70;59.80;;;;;;5053020;28;20200;-85
2023/07/28 00:18:18;;;;;;;3.03;2.10;;;20.70;59.80;;;;;;5052767;28;20166;-85
2023/07/28 00:20:44;;;;;;;2.15;1.83;;;20.70;59.80;;;;;;5054138;28;20158;-86
2023/07/28 00:23:13;;;;;;;2.13;1.85;;;20.70;59.80;;;;;;5052863;28;20255;-83
2023/07/28 00:25:39;;;;;;;2.65;2.25;;;20.70;60.50;;;;;;5035593;28;20216;-85
2023/07/28 00:28:05;;;;;;;2.03;1.83;;;20.70;59.80;;;;;;5052746;28;20195;-87
2023/07/28 00:30:31;;;;;;;2.97;2.22;;;20.70;59.80;;;;;;5052645;28;20273;-84
2023/07/28 00:32:57;;;;;;;2.55;2.22;;;20.60;59.80;;;;;;5053085;28;20166;-85
2023/07/28 00:35:23;;;;;;;2.10;1.90;;;20.70;59.80;;;;;;5052544;28;20196;-86
2023/07/28 00:37:49;;;;;;;2.28;2.00;;;20.60;59.80;;;;;;5036730;28;20162;-87
2023/07/28 00:40:15;;;;;;;2.22;2.03;;;20.70;59.80;;;;;;5054070;28;20169;-88
2023/07/28 00:42:41;;;;;;;2.22;1.95;;;20.70;59.80;;;;;;5053869;28;20155;-85
2023/07/28 00:45:08;;;;;;;2.20;2.00;;;20.60;59.80;;;;;;5052642;28;20517;-86
2023/07/28 00:47:34;;;;;;;2.13;1.90;;;20.70;59.90;;;;;;5052387;28;20165;-88
2023/07/28 00:50:00;;;;;;;2.15;1.95;;;20.70;59.80;;;;;;5052356;28;20201;-85
2023/07/28 00:52:26;;;;;;;2.33;2.00;;;20.70;59.80;;;;;;5052483;28;20158;-83
2023/07/28 00:54:52;;;;;;;2.25;2.05;;;20.70;59.80;;;;;;5053521;28;20142;-86
2023/07/28 00:57:18;;;;;;;2.03;1.83;;;20.70;59.90;;;;;;5053251;28;20151;-87
2023/07/28 00:59:45;;;;;;;2.08;1.88;;;20.70;59.80;;;;;;5052240;28;20588;-85
2023/07/28 01:02:12;;;;;;;2.17;1.98;;;20.70;59.90;;;;;;5035563;28;20621;-84
2023/07/28 01:04:37;;;;;;;2.13;1.92;;;20.70;59.80;;;;;;5052244;28;20158;-84
2023/07/28 01:07:21;;;;;;;2.20;2.00;;;20.70;59.90;;;;;;5035523;28;20584;-88
2023/07/28 01:09:57;;;;;;;2.70;2.28;;;20.70;59.90;;;;;;5051925;28;20221;-87
2023/07/28 01:12:24;;;;;;;2.30;2.10;;;20.70;59.90;;;;;;5070169;28;20639;-88
2023/07/28 01:14:50;;;;;;;2.47;2.00;;;20.70;59.90;;;;;;5035514;28;20158;-86
2023/07/28 01:17:16;;;;;;;2.20;2.00;;;20.70;59.90;;;;;;5052070;28;20166;-87
2023/07/28 01:19:42;;;;;;;2.63;2.22;;;20.60;59.90;;;;;;5052210;28;20159;-84
2023/07/28 01:22:37;;;;;;;2.03;1.80;;;20.70;59.90;;;;;;5051972;28;20158;-85
2023/07/28 01:25:28;;;;;;;2.33;2.10;;;20.70;59.90;;;;;;5037952;28;20675;-84
2023/07/28 01:27:55;;;;;;;2.20;2.00;;;20.70;60.00;;;;;;5052218;28;20241;-86
2023/07/28 01:30:21;;;;;;;2.65;2.05;;;20.60;59.90;;;;;;5051873;28;20186;-85
2023/07/28 01:32:48;;;;;;;2.40;2.20;;;20.70;60.00;;;;;;5053243;28;20162;-86
2023/07/28 01:35:14;;;;;;;2.25;2.05;;;20.70;60.00;;;;;;5051903;28;20647;-82
2023/07/28 01:37:40;;;;;;;2.40;2.10;;;20.70;60.00;;;;;;5053062;28;20154;-83
2023/07/28 01:40:07;;;;;;;2.20;2.00;;;20.70;60.00;;;;;;5051872;28;20312;-84
2023/07/28 01:42:32;;;;;;;1.98;1.75;;;20.60;59.90;;;;;;5053344;28;20154;-83
2023/07/28 01:44:58;;;;;;;2.17;1.85;;;20.60;59.90;;;;;;5053251;28;20179;-86
2023/07/28 01:47:25;;;;;;;2.17;1.98;;;20.60;59.90;;;;;;5035053;28;20158;-87
2023/07/28 01:49:51;;;;;;;2.65;2.20;;;20.60;59.90;;;;;;5052955;28;20155;-86
2023/07/28 01:52:17;;;;;;;2.58;1.85;;;20.60;59.90;;;;;;5053134;28;20157;-85
2023/07/28 01:54:43;;;;;;;2.22;2.00;;;20.60;60.00;;;;;;5052915;28;20233;-84
2023/07/28 01:57:09;;;;;;;2.20;2.00;;;20.60;60.00;;;;;;5053108;28;20518;-86
2023/07/28 01:59:34;;;;;;;1.80;1.63;;;20.60;60.00;;;;;;5051701;28;20162;-85
2023/07/28 02:02:01;;;;;;;2.10;1.90;;;20.60;60.00;;;;;;5052682;28;20154;-83
2023/07/28 02:04:28;;;;;;;2.20;1.95;;;20.60;60.00;;;;;;5035077;28;20166;-85
2023/07/28 02:06:54;;;;;;;2.00;1.80;;;20.60;60.00;;;;;;5052826;28;20154;-84
2023/07/28 02:09:19;;;;;;;2.10;1.90;;;20.60;60.00;;;;;;5054630;28;20220;-86
2023/07/28 02:11:45;;;;;;;2.17;1.88;;;20.70;60.10;;;;;;5055568;28;20197;-88
2023/07/28 02:14:11;;;;;;;1.95;1.75;;;20.60;60.00;;;;;;5055219;28;20578;-86
2023/07/28 02:16:37;;;;;;;2.53;2.00;;;20.60;60.00;;;;;;5056385;28;20154;-85
2023/07/28 02:19:03;;;;;;;2.40;2.08;;;20.70;60.00;;;;;;5056639;28;20513;-86
2023/07/28 02:21:29;;;;;;;2.22;2.00;;;20.70;60.00;;;;;;5055125;28;20237;-84
2023/07/28 02:23:55;;;;;;;2.42;2.10;;;20.60;60.00;;;;;;5055406;28;20239;-85
2023/07/28 02:26:21;;;;;;;2.10;1.88;;;20.70;60.00;;;;;;5054961;28;20220;-84
2023/07/28 02:28:47;;;;;;;2.53;1.90;;;20.60;60.00;;;;;;5055145;28;20551;-87
2023/07/28 02:31:13;;;;;;;1.77;1.67;;;20.60;60.10;;;;;;5038262;28;20186;-84
2023/07/28 02:33:39;;;;;;;1.90;1.80;;;20.60;60.10;;;;;;5056184;28;20520;-87
2023/07/28 02:36:05;;;;;;;2.92;2.42;;;20.60;60.00;;;;;;5038324;28;20158;-85
2023/07/28 02:38:31;;;;;;;2.40;1.98;;;20.70;60.10;;;;;;5056097;28;20154;-85
2023/07/28 02:40:57;;;;;;;2.42;2.00;;;20.60;60.10;;;;;;5054831;28;20253;-85
2023/07/28 02:43:23;;;;;;;2.20;2.00;;;20.60;60.10;;;;;;5054955;28;20189;-85
2023/07/28 02:45:56;;;;;;;2.10;1.90;;;20.60;60.10;;;;;;5055888;28;20162;-85
2023/07/28 02:48:23;;;;;;;2.58;2.20;;;20.60;60.10;;;;;;5054914;28;20162;-84
2023/07/28 02:50:49;;;;;;;2.33;2.13;;;20.60;60.10;;;;;;5037966;28;20189;-87
2023/07/28 02:53:15;;;;;;;2.00;1.80;;;20.60;60.10;;;;;;5054529;28;20162;-83
2023/07/28 02:55:42;;;;;;;2.13;1.92;;;20.60;60.20;;;;;;5054761;28;20655;-85
2023/07/28 02:58:12;;;;;;;2.47;1.88;;;20.60;60.10;;;;;;5054654;28;20161;-84
2023/07/28 03:00:40;;;;;;;1.83;1.65;;;20.60;60.10;;;;;;5037171;28;20272;-85
2023/07/28 03:03:07;;;;;;;2.33;2.05;;;20.60;60.10;;;;;;5054323;28;20510;-85
2023/07/28 03:05:33;;;;;;;2.75;2.15;;;20.60;60.30;;;;;;5054678;28;20513;-83
2023/07/28 03:07:59;;;;;;;2.38;2.17;;;20.60;60.30;;;;;;5054275;28;20162;-86
2023/07/28 03:10:29;;;;;;;2.22;2.00;;;20.60;60.10;;;;;;5055284;28;20708;-84
2023/07/28 03:12:55;;;;;;;2.30;2.10;;;20.60;60.30;;;;;;5053886;28;20217;-86
2023/07/28 03:15:22;;;;;;;2.47;2.20;;;20.50;60.10;;;;;;5055412;28;20150;-86
2023/07/28 03:17:54;;;;;;;2.35;2.15;;;20.60;60.20;;;;;;5055256;28;20521;-86
2023/07/28 03:20:20;;;;;;;2.65;2.20;;;20.60;60.10;;;;;;5020100;28;20557;-85
2023/07/28 03:22:46;;;;;;;2.25;1.83;;;20.60;60.30;;;;;;5037473;28;20170;-82
2023/07/28 03:25:12;;;;;;;2.17;1.98;;;20.60;60.20;;;;;;5037309;28;20163;-86
2023/07/28 03:27:38;;;;;;;2.35;2.10;;;20.60;60.20;;;;;;5055110;28;20617;-84
2023/07/28 03:30:06;;;;;;;2.58;2.10;;;20.60;60.30;;;;;;5055058;28;20190;-86
2023/07/28 03:32:33;;;;;;;2.67;2.03;;;20.60;60.30;;;;;;5054103;28;20155;-82
2023/07/28 03:34:59;;;;;;;2.33;2.13;;;20.60;60.30;;;;;;5055019;28;20163;-86
2023/07/28 03:37:24;;;;;;;3.00;1.90;;;20.60;60.30;;;;;;5053797;28;20162;-84
2023/07/28 03:39:50;;;;;;;2.47;2.28;;;20.60;61.20;;;;;;5053709;28;20617;-86
2023/07/28 03:42:16;;;;;;;1.98;1.80;;;20.60;60.30;;;;;;5053619;28;20163;-84
2023/07/28 03:44:42;;;;;;;2.03;1.83;;;20.60;60.40;;;;;;5053628;28;20529;-84
2023/07/28 03:47:08;;;;;;;2.78;2.05;;;20.50;60.30;;;;;;5054776;28;20227;-88
2023/07/28 03:49:34;;;;;;;2.38;1.85;;;20.50;60.30;;;;;;5053684;28;20493;-88
2023/07/28 03:52:00;;;;;;;2.10;1.90;;;20.60;60.30;;;;;;5053332;28;20649;-85
2023/07/28 03:54:26;;;;;;;2.25;2.05;;;20.60;60.30;;;;;;5053556;28;20613;-87
2023/07/28 03:56:53;;;;;;;2.13;1.80;;;20.70;60.10;;;;;;5054589;28;20150;-88
2023/07/28 03:59:19;;;;;;;2.22;1.80;;;20.70;60.00;;;;;;5053345;28;20672;-85
2023/07/28 04:01:45;;;;;;;2.13;1.85;;;20.60;59.90;;;;;;5037306;28;20174;-89
2023/07/28 04:04:10;;;;;;;2.00;1.80;;;20.70;59.90;;;;;;5053482;28;20577;-87
2023/07/28 04:06:45;;;;;;;1.98;1.75;;;20.70;59.90;;;;;;5036426;28;20170;-86
2023/07/28 04:09:12;;;;;;;2.25;2.03;;;20.70;59.80;;;;;;5054244;28;20229;-85
2023/07/28 04:11:38;;;;;;;2.03;1.83;;;20.80;59.90;;;;;;5070151;28;20549;-87
2023/07/28 04:14:04;;;;;;;2.10;1.90;;;20.80;59.80;;;;;;5036322;28;20170;-88
2023/07/28 04:16:30;;;;;;;2.10;1.90;;;20.80;59.80;;;;;;5054663;28;20200;-84
2023/07/28 04:18:57;;;;;;;2.13;1.92;;;20.80;59.80;;;;;;5052827;28;20231;-84
2023/07/28 04:21:23;;;;;;;2.47;1.60;;;20.80;59.60;;;;;;5054365;28;20158;-84
2023/07/28 04:23:49;;;;;;;2.40;2.20;;;20.80;59.60;;;;;;5052916;28;20162;-84
2023/07/28 04:26:15;;;;;;;2.00;1.73;;;20.80;59.60;;;;;;5052873;28;20158;-84
2023/07/28 04:28:41;;;;;;;2.00;1.80;;;20.90;59.60;;;;;;5053994;28;20161;-85
2023/07/28 04:31:07;;;;;;;1.92;1.73;;;20.90;60.20;;;;;;5053170;28;20202;-84
2023/07/28 04:33:33;;;;;;;1.83;1.70;;;20.90;59.50;;;;;;5052592;28;20151;-85
2023/07/28 04:36:02;;;;;;;2.10;1.90;;;20.90;59.40;;;;;;5052714;28;20212;-85
2023/07/28 04:38:27;;;;;;;2.35;2.15;;;20.90;59.40;;;;;;5035924;28;20178;-85
2023/07/28 04:40:54;;;;;;;2.08;1.88;;;21.00;59.20;;;;;;5035810;28;20189;-86
2023/07/28 04:43:20;;;;;;;2.15;1.95;;;21.00;60.00;;;;;;5053879;28;20627;-87
2023/07/28 04:45:46;;;;;;;1.73;1.60;;;21.10;59.20;;;;;;5053605;28;20532;-86
2023/07/28 04:48:16;;;;;;;2.00;1.80;;;21.00;59.10;;;;;;5052336;28;20165;-87
2023/07/28 04:50:42;;;;;;;2.08;1.88;;;21.00;59.20;;;;;;5035440;28;20267;-84
2023/07/28 04:53:08;;;;;;;2.00;1.80;;;21.00;59.10;;;;;;5053506;28;20154;-85
2023/07/28 04:55:34;;;;;;;2.25;2.00;;;21.10;59.10;;;;;;5053687;28;20580;-87
2023/07/28 04:57:59;;;;;;;1.75;1.65;;;21.00;59.10;;;;;;5052635;28;20211;-86
2023/07/28 05:00:25;;;;;;;2.17;1.98;;;21.10;59.10;;;;;;5053446;28;20158;-87
2023/07/28 05:02:51;;;;;;;2.00;1.88;;;21.10;59.00;;;;;;5052198;28;20154;-88
2023/07/28 05:05:17;;;;;;;2.20;2.00;;;21.10;59.00;;;;;;5052379;28;20172;-83
2023/07/28 05:07:43;;;;;;;2.20;2.00;;;21.10;58.90;;;;;;5053365;28;20517;-84
2023/07/28 05:10:10;;;;;;;2.20;2.00;;;21.20;59.00;;;;;;5051867;28;20261;-85
2023/07/28 05:12:35;;;;;;;2.17;1.98;;;21.00;59.00;;;;;;5035815;28;20165;-86
2023/07/28 05:15:01;;;;;;;2.10;1.90;;;21.00;59.20;;;;;;5053257;28;20743;-83
2023/07/28 05:17:27;;;;;;;2.00;1.80;;;21.00;59.00;;;;;;5051937;28;20182;-88
2023/07/28 05:19:53;;;;;;;2.42;2.22;;;21.00;59.10;;;;;;5035393;28;20201;-87
2023/07/28 05:22:19;;;;;;;1.70;1.60;;;21.00;59.20;;;;;;5035313;28;20168;-84
2023/07/28 05:24:45;;;;;;;1.92;1.73;;;21.00;59.20;;;;;;5051982;28;20630;-87
2023/07/28 05:27:11;;;;;;;2.08;1.83;;;21.00;59.20;;;;;;5052031;28;20146;-85
2023/07/28 05:29:38;;;;;;;2.50;1.90;;;21.00;59.30;;;;;;5035780;28;20162;-83
2023/07/28 05:32:05;;;;;;;2.35;2.00;;;21.00;59.20;;;;;;5051877;28;20214;-85
2023/07/28 05:34:31;;;;;;;2.00;1.80;;;21.00;59.20;;;;;;5035709;28;20499;-84
2023/07/28 05:36:57;;;;;;;2.15;1.95;;;21.00;59.20;;;;;;5051814;28;20671;-87
2023/07/28 05:39:23;;;;;;;1.88;1.63;;;21.00;59.40;;;;;;5053345;28;20535;-87
2023/07/28 05:41:49;;;;;;;2.25;1.90;;;21.00;59.60;;;;;;5035476;28;20220;-85
2023/07/28 05:44:14;;;;;;;2.03;1.70;;;20.90;59.90;;;;;;5063558;28;20211;-87
2023/07/28 05:46:40;;;;;;;1.90;1.70;;;20.90;60.10;;;;;;5043884;28;20161;-87
2023/07/28 05:49:06;;;;;;;1.88;1.77;;;20.90;60.50;;;;;;5077507;28;20153;-85
2023/07/28 05:51:32;;;;;;;2.20;1.90;;;20.90;60.60;;;;;;5059592;28;20204;-87
2023/07/28 05:53:58;;;;;;;2.10;1.90;;;20.80;61.00;;;;;;5077590;28;20203;-89
2023/07/28 05:56:24;;;;;;;2.13;1.83;;;20.80;61.20;;;;;;5077345;28;20604;-85
2023/07/28 05:58:50;;;;;;;1.90;1.70;;;20.90;61.10;;;;;;5077196;28;20173;-84
2023/07/28 06:01:17;;;;;;;2.08;1.88;;;20.80;61.30;;;;;;5077476;28;20206;-84
2023/07/28 06:03:42;;;;;;;2.13;1.70;;;20.80;61.40;;;;;;5075804;28;20146;-83
2023/07/28 06:06:08;;;;;;;1.70;1.60;;;20.90;61.60;;;;;;5075779;28;20161;-88
2023/07/28 06:08:35;;;;;;;2.85;1.77;;;20.90;61.60;;;;;;5075286;28;20611;-86
2023/07/28 06:11:03;;;;;;;1.60;1.50;;;20.90;61.50;;;;;;5042592;28;20232;-88
2023/07/28 06:13:29;;;;;;;1.83;1.65;;;20.90;61.60;;;;;;5059408;28;20170;-84
2023/07/28 06:15:56;;;;;;;2.20;1.77;;;20.90;61.80;;;;;;5075780;28;20207;-86
2023/07/28 06:18:22;;;;;;;2.00;1.75;;;20.90;62.00;;;;;;5059344;28;20253;-87
2023/07/28 06:20:48;;;;;;;2.15;1.95;;;20.90;61.80;;;;;;5076255;28;20245;-82
2023/07/28 06:23:14;;;;;;;1.85;1.65;;;20.90;62.10;;;;;;5059267;28;20158;-85
2023/07/28 06:25:43;;;;;;;1.52;1.42;;;20.80;62.10;;;;;;5077131;28;20176;-84
2023/07/28 06:28:10;;;;;;;1.65;1.55;;;20.90;62.10;;;;;;5075896;28;20162;-83
2023/07/28 06:30:37;;;;;;;1.83;1.73;;;20.90;62.30;;;;;;5077096;28;20749;-86
2023/07/28 06:33:06;;;;;;;1.60;1.50;;;20.90;62.40;;;;;;5059248;28;20257;-86
2023/07/28 06:35:32;;;;;;;1.70;1.60;;;20.90;62.30;;;;;;5058998;28;20165;-85
2023/07/28 06:38:00;;;;;;;2.00;1.80;;;20.80;62.50;;;;;;5058309;28;20172;-86
2023/07/28 06:40:26;;;;;;;1.30;1.17;;;20.90;62.50;;;;;;5058439;28;20584;-86
2023/07/28 06:42:52;;;;;;;1.50;1.40;;;20.90;62.60;;;;;;5075578;28;20161;-87
2023/07/28 06:45:19;;;;;;;1.60;1.50;;;20.90;62.60;;;;;;5075539;28;20211;-85
2023/07/28 06:47:45;;;;;;;1.63;1.52;;;20.80;62.70;;;;;;5075520;28;20199;-85
2023/07/28 06:50:11;;;;;;;1.70;1.60;;;20.90;62.50;;;;;;5076192;28;20197;-84
2023/07/28 06:52:37;;;;;;;1.58;1.48;;;21.00;62.40;;;;;;5074782;28;20158;-84
2023/07/28 06:55:03;;;;;;;1.60;1.50;;;20.90;62.50;;;;;;5075635;28;20195;-84
2023/07/28 06:57:30;;;;;;;1.58;1.48;;;21.00;62.40;;;;;;5058586;28;20207;-87
2023/07/28 06:59:56;;;;;;;1.75;1.63;;;21.00;63.30;;;;;;5075919;28;20154;-85
2023/07/28 07:02:22;;;;;;;1.60;1.50;;;21.00;62.30;;;;;;5058142;28;20168;-86
2023/07/28 07:04:48;;;;;;;1.70;1.60;;;21.00;62.30;;;;;;5074431;28;20149;-84
2023/07/28 07:07:14;;;;;;;1.52;1.42;;;21.00;62.30;;;;;;5074600;28;20154;-83
2023/07/28 07:09:40;;;;;;;1.70;1.60;;;20.90;62.50;;;;;;5074068;28;20589;-83
2023/07/28 07:12:08;;;;;;;1.70;1.45;;;21.00;62.70;;;;;;5059272;28;20204;-84
2023/07/28 07:14:34;;;;;;;1.45;1.35;;;20.80;62.60;;;;;;5058326;28;20176;-84
2023/07/28 07:17:00;;;;;;;2.03;1.50;;;20.90;62.70;;;;;;5074358;28;20588;-84
2023/07/28 07:19:28;;;;;;;1.83;1.70;;;20.90;62.80;;;;;;5074176;28;20149;-87
2023/07/28 07:21:54;;;;;;;1.45;1.35;;;20.90;62.70;;;;;;5057346;28;20300;-86
2023/07/28 07:24:21;;;;;;;1.63;1.52;;;21.00;62.80;;;;;;5073879;28;20566;-83
2023/07/28 07:26:47;;;;;;;1.67;1.58;;;21.00;62.80;;;;;;5074198;28;20153;-85
2023/07/28 07:29:13;;;;;;;1.58;1.48;;;20.90;63.10;;;;;;5073975;28;20158;-86
2023/07/28 07:31:39;;;;;;;1.52;1.42;;;21.00;62.80;;;;;;5057569;28;20189;-84
2023/07/28 07:34:05;;;;;;;1.50;1.40;;;20.90;63.20;;;;;;5074141;28;20529;-87
2023/07/28 07:36:31;;;;;;;1.92;1.60;;;20.90;63.00;;;;;;5073899;28;20150;-86
2023/07/28 07:38:57;;;;;;;1.30;1.20;;;20.90;63.30;;;;;;5074101;28;20169;-86
2023/07/28 07:41:24;;;;;;;1.70;1.60;;;21.00;63.20;;;;;;5058119;28;20264;-84
2023/07/28 07:43:52;;;;;;;1.73;1.50;;;21.00;63.20;;;;;;5074921;28;20206;-87
2023/07/28 07:46:19;;;;;;;1.67;1.58;;;20.90;63.50;;;;;;5074008;28;20514;-84
2023/07/28 07:48:45;;;;;;;1.40;1.30;;;21.00;63.30;;;;;;5073866;28;20153;-86
2023/07/28 07:51:11;;;;;;;1.50;1.40;;;20.90;63.70;;;;;;5073472;28;20190;-84
2023/07/28 07:53:37;;;;;;;1.40;1.30;;;21.00;63.60;;;;;;5073410;28;20162;-83
2023/07/28 07:56:03;;;;;;;1.42;1.33;;;20.90;63.60;;;;;;5074509;28;20627;-86
2023/07/28 07:58:29;;;;;;;1.50;1.40;;;20.90;63.70;;;;;;5056746;28;20231;-87
2023/07/28 08:00:56;;;;;;;1.25;1.15;;;21.00;63.50;;;;;;5073558;28;20632;-85
2023/07/28 08:03:22;;;;;;;1.20;1.10;;;21.00;63.40;;;;;;5073132;28;20161;-84
2023/07/28 08:05:48;;;;;;;1.65;1.50;;;21.00;63.30;;;;;;5073151;28;20150;-86
2023/07/28 08:08:16;;;;;;;1.35;1.25;;;21.00;63.30;;;;;;5057101;28;20252;-87
2023/07/28 08:10:43;;;;;;;1.30;1.20;;;20.90;63.50;;;;;;5073582;28;20237;-88
2023/07/28 08:13:09;;;;;;;1.63;1.52;;;20.90;63.50;;;;;;5073542;28;20150;-85
2023/07/28 08:15:35;;;;;;;1.33;1.23;;;21.00;63.60;;;;;;5075782;28;20192;-84
2023/07/28 08:18:01;;;;;;;1.60;1.23;;;21.00;63.80;;;;;;5075043;28;20168;-87
2023/07/28 08:20:27;;;;;;;1.67;1.58;;;21.00;63.70;;;;;;5074313;28;20185;-84
2023/07/28 08:22:53;;;;;;;1.50;1.40;;;21.00;63.60;;;;;;5058544;28;20161;-86
2023/07/28 08:25:19;;;;;;;1.40;1.30;;;21.00;63.70;;;;;;5076842;28;20160;-85
2023/07/28 08:27:45;;;;;;;1.70;1.60;;;20.90;64.20;;;;;;5058292;28;20162;-86
2023/07/28 08:30:11;;;;;;;1.30;1.20;;;20.90;64.10;;;;;;5074937;28;20158;-83
2023/07/28 08:32:37;;;;;;;1.30;1.20;;;20.90;64.30;;;;;;5075947;28;20158;-87
2023/07/28 08:35:03;;;;;;;1.30;1.20;;;21.00;64.30;;;;;;5073709;28;20184;-84
2023/07/28 08:37:29;;;;;;;1.58;1.40;;;21.00;64.20;;;;;;5075189;28;20164;-86
2023/07/28 08:39:55;;;;;;;1.40;1.30;;;21.10;64.20;;;;;;5073135;28;20162;-84
2023/07/28 08:42:22;;;;;;;1.40;1.30;;;21.00;64.30;;;;;;5072481;28;20164;-83
2023/07/28 08:44:48;;;;;;;1.38;1.27;;;20.90;64.60;;;;;;5055996;28;20208;-85
2023/07/28 08:47:14;;;;;;;1.35;1.25;;;20.90;64.50;;;;;;5072600;28;20576;-86
2023/07/28 08:49:40;;;;;;;1.35;1.25;;;20.90;64.60;;;;;;5056117;28;20165;-83
2023/07/28 08:52:06;;;;;;;1.48;1.25;;;20.80;64.70;;;;;;5072342;28;20193;-86
2023/07/28 08:54:32;;;;;;;1.45;1.30;;;20.80;64.90;;;;;;5073504;28;20546;-86
2023/07/28 08:56:58;;;;;;;1.38;1.27;;;20.80;65.00;;;;;;5073485;28;20164;-85
2023/07/28 08:59:26;;;;;;;1.42;1.33;;;20.70;65.00;;;;;;5055843;28;20617;-87
2023/07/28 09:01:53;;;;;;;1.50;1.38;;;20.70;65.10;;;;;;5073403;28;20157;-85
2023/07/28 09:04:20;;;;;;;1.40;1.30;;;20.70;65.10;;;;;;5072372;28;20638;-84
2023/07/28 09:06:47;;;;;;;2.33;1.45;;;20.70;65.30;;;;;;5073349;28;20153;-87
2023/07/28 09:09:14;;;;;;;1.25;1.15;;;20.70;65.30;;;;;;5055228;28;20309;-86
2023/07/28 09:11:48;;;;;;;1.30;1.20;;;20.70;65.50;;;;;;5055491;28;20196;-82
2023/07/28 09:14:16;;;;;;;1.20;1.10;;;20.70;65.60;;;;;;5055423;28;20161;-87
2023/07/28 09:16:42;;;;;;;1.10;1.00;;;20.70;65.80;;;;;;5072205;28;20239;-85
2023/07/28 09:19:10;;;;;;;1.23;1.13;;;20.70;65.90;;;;;;5055835;28;20176;-82
2023/07/28 09:21:37;;;;;;;1.33;1.23;;;20.60;66.00;;;;;;5071921;28;20535;-84
2023/07/28 09:24:08;;;;;;;1.20;1.10;;;20.60;66.00;;;;;;5072073;28;20154;-83
2023/07/28 09:26:43;;;;;;;1.23;1.13;;;20.70;66.10;;;;;;5022214;28;20248;-84
2023/07/28 09:29:20;;;;;;;1.17;1.08;;;20.70;66.10;;;;;;5055786;28;20172;-85
2023/07/28 09:31:46;;;;;;;1.20;1.10;;;20.60;66.20;;;;;;5073058;28;20276;-83
2023/07/28 09:34:13;;;;;;;1.02;0.95;;;20.60;66.50;;;;;;5071965;28;20292;-84
2023/07/28 09:36:39;;;;;;;1.33;1.10;;;20.60;66.60;;;;;;5071923;28;20584;-84
2023/07/28 09:39:08;;;;;;;1.55;1.30;;;20.60;66.80;;;;;;5071891;28;20215;-86
2023/07/28 09:41:36;;;;;;;1.08;1.00;;;20.50;66.90;;;;;;5056275;28;20175;-82
2023/07/28 09:44:02;;;;;;;1.00;1.00;;;20.60;67.10;;;;;;5072152;28;20154;-83
2023/07/28 09:46:30;;;;;;;1.38;1.27;;;20.60;67.30;;;;;;5055072;28;20218;-85
2023/07/28 09:48:57;;;;;;;1.15;1.05;;;20.50;67.40;;;;;;5072200;28;20202;-86
2023/07/28 09:51:23;;;;;;;0.98;0.98;;;20.50;67.60;;;;;;5054972;28;20709;-84
2023/07/28 09:53:52;;;;;;;0.88;0.88;;;20.50;67.70;;;;;;5072296;28;20531;-85
2023/07/28 09:56:18;;;;;;;1.38;1.27;;;20.50;67.80;;;;;;5073491;28;20154;-82
2023/07/28 09:58:49;;;;;;;0.80;0.80;;;20.50;67.90;;;;;;5072222;28;20150;-85
2023/07/28 10:01:15;;;;;;;1.00;0.90;;;20.50;68.20;;;;;;5073174;28;20211;-86
2023/07/28 10:03:41;;;;;;;0.98;0.90;;;20.50;68.40;;;;;;5071494;28;20157;-86
2023/07/28 10:06:07;;;;;;;1.20;1.10;;;20.50;68.50;;;;;;5054842;28;20168;-84
2023/07/28 10:08:33;;;;;;;1.00;1.00;;;20.50;68.60;;;;;;5054627;28;20164;-84
2023/07/28 10:10:59;;;;;;;0.90;0.90;;;20.40;68.80;;;;;;5055091;28;20185;-86
2023/07/28 10:13:26;;;;;;;1.02;0.93;;;20.40;68.80;;;;;;5071852;28;20652;-85
2023/07/28 10:15:52;;;;;;;1.00;1.00;;;20.40;68.90;;;;;;5072784;28;20158;-85
2023/07/28 10:18:21;;;;;;;1.00;0.85;;;20.40;69.00;;;;;;5072665;28;20152;-84
2023/07/28 10:20:49;;;;;;;0.88;0.88;;;20.30;69.10;;;;;;5055664;28;20268;-85
2023/07/28 10:23:17;;;;;;;1.25;1.00;;;20.40;69.30;;;;;;5071447;28;20248;-85
2023/07/28 10:25:44;;;;;;;1.15;1.05;;;20.30;69.40;;;;;;5072597;28;20200;-84
2023/07/28 10:28:31;;;;;;;0.90;0.90;;;20.30;69.50;;;;;;5071723;28;20158;-83
2023/07/28 10:30:57;;;;;;;1.45;1.08;;;20.40;69.40;;;;;;5057738;28;20239;-87
2023/07/28 10:33:33;;;;;;;0.95;0.93;;;20.40;69.50;;;;;;5058250;28;20223;-86
2023/07/28 10:36:00;;;;;;;0.90;0.90;;;20.30;69.50;;;;;;5074998;28;20153;-86
2023/07/28 10:38:30;;;;;;;0.85;0.85;;;20.30;69.50;;;;;;5058666;28;20168;-86
2023/07/28 10:41:07;;;;;;;0.95;0.95;;;20.30;69.60;;;;;;5058864;28;20169;-84
2023/07/28 10:43:33;;;;;;;1.13;0.90;;;20.30;69.70;;;;;;5074696;28;20606;-86
2023/07/28 10:46:00;;;;;;;0.98;0.98;;;20.40;69.70;;;;;;5075159;28;20158;-84
2023/07/28 10:48:26;;;;;;;1.10;1.00;;;20.40;69.70;;;;;;5074994;28;20902;-83
2023/07/28 10:50:51;;;;;;;1.10;1.00;;;20.30;69.60;;;;;;5058278;28;20195;-85
2023/07/28 10:53:18;;;;;;;1.42;1.33;;;20.40;69.60;;;;;;5076275;28;20150;-83
2023/07/28 10:55:48;;;;;;;1.10;1.00;;;20.40;69.60;;;;;;5057784;28;20628;-87
2023/07/28 10:58:14;;;;;;;0.90;0.90;;;20.30;69.60;;;;;;5024586;28;20181;-85
2023/07/28 11:00:41;;;;;;;1.10;1.00;;;20.40;69.80;;;;;;5074908;28;20157;-83
2023/07/28 11:03:09;;;;;;;0.93;0.93;;;20.40;69.80;;;;;;5076055;28;20154;-86
2023/07/28 11:05:35;;;;;;;0.95;0.95;;;20.40;69.90;;;;;;5074769;28;20154;-86
2023/07/28 11:08:01;;;;;;;1.02;1.00;;;20.40;70.00;;;;;;5075722;28;20240;-86
2023/07/28 11:10:28;;;;;;;1.17;1.08;;;20.40;70.00;;;;;;5074131;28;20232;-85
2023/07/28 11:12:58;;;;;;;0.85;0.85;;;20.40;70.10;;;;;;5057678;28;20165;-85
2023/07/28 11:15:24;;;;;;;1.23;1.13;;;20.30;70.20;;;;;;5075511;28;20149;-84
2023/07/28 11:17:51;;;;;;;1.10;1.00;;;20.40;70.30;;;;;;5074562;28;20180;-86
2023/07/28 11:20:21;;;;;;;0.80;0.80;;;20.40;70.20;;;;;;5074075;28;20169;-83
2023/07/28 11:22:56;;;;;;;1.05;0.95;;;20.40;70.00;;;;;;5057363;28;20175;-85
2023/07/28 11:25:22;;;;;;;1.23;1.13;;;20.40;69.80;;;;;;5074369;28;20156;-86
2023/07/28 11:27:48;;;;;;;1.20;1.10;;;20.40;69.80;;;;;;5074237;28;20150;-83
2023/07/28 11:30:15;;;;;;;1.05;0.93;;;20.40;69.70;;;;;;5074501;28;20161;-84
2023/07/28 11:32:43;;;;;;;0.95;0.90;;;20.40;69.50;;;;;;5073901;28;20249;-84
2023/07/28 11:35:12;;;;;;;1.20;1.10;;;20.40;69.50;;;;;;5073934;28;20162;-86
2023/07/28 11:37:39;;;;;;;1.10;1.00;;;20.40;69.40;;;;;;5057570;28;20169;-86
2023/07/28 11:40:07;;;;;;;0.88;0.88;;;20.40;69.40;;;;;;5073554;28;20176;-86
2023/07/28 11:42:34;;;;;;;1.10;1.00;;;20.40;69.40;;;;;;5057625;28;20172;-83
2023/07/28 11:45:00;;;;;;;0.90;0.90;;;20.30;69.40;;;;;;5057591;28;20162;-85
2023/07/28 11:47:26;;;;;;;0.90;0.90;;;20.40;69.40;;;;;;5073603;28;20497;-83
2023/07/28 11:49:53;;;;;;;0.80;0.80;;;20.40;69.40;;;;;;5073645;28;20223;-87
2023/07/28 11:52:21;;;;;;;0.98;0.95;;;20.30;69.30;;;;;;5073598;28;20525;-86
2023/07/28 11:54:46;;;;;;;1.30;1.20;;;20.30;69.20;;;;;;5057185;28;20586;-85
2023/07/28 11:57:12;;;;;;;1.10;1.00;;;20.30;69.00;;;;;;5073384;28;20153;-85
2023/07/28 11:59:38;;;;;;;1.10;1.00;;;20.40;69.00;;;;;;5056965;28;20165;-84
2023/07/28 12:02:05;;;;;;;0.88;0.88;;;20.30;68.90;;;;;;5057512;28;20169;-86
2023/07/28 12:04:32;;;;;;;1.17;0.90;;;20.30;69.70;;;;;;5056598;28;20169;-86
2023/07/28 12:07:11;;;;;;;1.00;0.90;;;20.30;68.90;;;;;;5073377;28;20236;-86
2023/07/28 12:09:53;;;;;;;0.88;0.88;;;20.30;68.90;;;;;;5072748;28;20251;-83
2023/07/28 12:12:22;;;;;;;1.10;1.00;;;20.30;69.00;;;;;;5073031;28;20191;-82
2023/07/28 12:14:51;;;;;;;0.80;0.80;;;20.30;68.90;;;;;;5073330;28;20154;-85
2023/07/28 12:17:19;;;;;;;0.80;0.80;;;20.20;68.90;;;;;;5074133;28;20564;-85
2023/07/28 12:20:10;;;;;;;0.80;0.80;;;20.30;69.00;;;;;;5056265;28;20176;-83
2023/07/28 12:22:38;;;;;;;1.05;0.95;;;20.30;69.00;;;;;;5074414;28;20158;-84
2023/07/28 12:25:04;;;;;;;0.80;0.80;;;20.20;69.00;;;;;;5074629;28;20232;-84
2023/07/28 12:27:30;;;;;;;0.70;0.70;;;20.30;69.00;;;;;;5073076;28;20161;-83
2023/07/28 12:29:56;;;;;;;0.60;0.60;;;20.30;69.10;;;;;;5074282;28;20156;-83
2023/07/28 12:32:22;;;;;;;0.77;0.77;;;20.30;69.20;;;;;;5072992;28;20268;-83
2023/07/28 12:34:50;;;;;;;0.90;0.90;;;20.20;69.30;;;;;;5073878;28;20643;-83
2023/07/28 12:37:16;;;;;;;0.90;0.90;;;20.30;69.40;;;;;;5056893;28;20192;-83
2023/07/28 12:39:43;;;;;;;1.08;0.95;;;20.30;69.60;;;;;;5055848;28;20165;-85
2023/07/28 12:42:09;;;;;;;0.90;0.80;;;20.20;69.60;;;;;;5073762;28;20192;-82
2023/07/28 12:44:36;;;;;;;1.13;1.02;;;20.20;69.80;;;;;;5073927;28;20226;-86
2023/07/28 12:47:02;;;;;;;0.75;0.70;;;20.20;69.90;;;;;;5073279;28;20166;-86